sensor_id;sensor_type;location;lat;lon;timestamp;temperature;humidity
20650;DHT22;10484;48.736;9.332;2024-03-25T00:01:14;5.70;5.30
20650;DHT22;10484;48.736;9.332;2024-03-25T00:03:40;5.70;5.60
20650;DHT22;10484;48.736;9.332;2024-03-25T00:06:05;5.70;6.00
20650;DHT22;10484;48.736;9.332;2024-03-25T00:08:32;5.70;6.50
20650;DHT22;10484;48.736;9.332;2024-03-25T00:10:57;5.70;6.40
20650;DHT22;10484;48.736;9.332;2024-03-25T00:13:23;5.70;6.80
20650;DHT22;10484;48.736;9.332;2024-03-25T00:15:48;5.70;6.30
20650;DHT22;10484;48.736;9.332;2024-03-25T00:18:14;5.70;6.30
20650;DHT22;10484;48.736;9.332;2024-03-25T00:20:40;5.80;6.70
20650;DHT22;10484;48.736;9.332;2024-03-25T00:23:05;5.70;7.10
20650;DHT22;10484;48.736;9.332;2024-03-25T00:25:31;5.70;6.90
20650;DHT22;10484;48.736;9.332;2024-03-25T00:27:56;5.70;6.60
20650;DHT22;10484;48.736;9.332;2024-03-25T00:30:23;5.70;6.50
20650;DHT22;10484;48.736;9.332;2024-03-25T00:32:49;5.70;6.90
20650;DHT22;10484;48.736;9.332;2024-03-25T00:35:15;5.70;7.80
20650;DHT22;10484;48.736;9.332;2024-03-25T00:37:40;5.70;8.40
20650;DHT22;10484;48.736;9.332;2024-03-25T00:40:06;5.70;8.90
20650;DHT22;10484;48.736;9.332;2024-03-25T00:42:33;5.70;9.00
20650;DHT22;10484;48.736;9.332;2024-03-25T00:44:59;5.70;9.50
20650;DHT22;10484;48.736;9.332;2024-03-25T00:47:25;5.70;10.20
20650;DHT22;10484;48.736;9.332;2024-03-25T00:49:51;5.70;10.60
20650;DHT22;10484;48.736;9.332;2024-03-25T00:52:17;5.60;11.00
20650;DHT22;10484;48.736;9.332;2024-03-25T00:54:42;5.70;11.20
20650;DHT22;10484;48.736;9.332;2024-03-25T00:57:08;5.70;11.00
20650;DHT22;10484;48.736;9.332;2024-03-25T00:59:33;5.60;10.50
20650;DHT22;10484;48.736;9.332;2024-03-25T01:01:59;5.60;9.90
20650;DHT22;10484;48.736;9.332;2024-03-25T01:04:25;5.70;8.80
20650;DHT22;10484;48.736;9.332;2024-03-25T01:06:50;5.70;8.30
20650;DHT22;10484;48.736;9.332;2024-03-25T01:09:16;5.70;8.10
20650;DHT22;10484;48.736;9.332;2024-03-25T01:11:41;5.70;7.90
20650;DHT22;10484;48.736;9.332;2024-03-25T01:14:07;5.70;8.00
20650;DHT22;10484;48.736;9.332;2024-03-25T01:16:33;5.70;8.60
20650;DHT22;10484;48.736;9.332;2024-03-25T01:18:58;5.70;8.80
20650;DHT22;10484;48.736;9.332;2024-03-25T01:21:25;5.70;9.00
20650;DHT22;10484;48.736;9.332;2024-03-25T01:23:50;5.70;9.10
20650;DHT22;10484;48.736;9.332;2024-03-25T01:26:16;5.70;9.40
20650;DHT22;10484;48.736;9.332;2024-03-25T01:28:42;5.60;9.20
20650;DHT22;10484;48.736;9.332;2024-03-25T01:31:08;5.70;9.00
20650;DHT22;10484;48.736;9.332;2024-03-25T01:33:34;5.60;8.70
20650;DHT22;10484;48.736;9.332;2024-03-25T01:36:00;5.70;9.10
20650;DHT22;10484;48.736;9.332;2024-03-25T01:38:25;5.60;9.60
20650;DHT22;10484;48.736;9.332;2024-03-25T01:40:51;5.60;9.90
20650;DHT22;10484;48.736;9.332;2024-03-25T01:43:17;5.60;9.80
20650;DHT22;10484;48.736;9.332;2024-03-25T01:45:42;5.60;10.00
20650;DHT22;10484;48.736;9.332;2024-03-25T01:48:10;5.60;13.50
20650;DHT22;10484;48.736;9.332;2024-03-25T01:50:40;5.60;10.90
20650;DHT22;10484;48.736;9.332;2024-03-25T01:53:07;5.60;11.20
20650;DHT22;10484;48.736;9.332;2024-03-25T01:55:35;5.60;10.70
20650;DHT22;10484;48.736;9.332;2024-03-25T01:58:02;5.60;10.00
20650;DHT22;10484;48.736;9.332;2024-03-25T02:00:27;5.60;9.60
20650;DHT22;10484;48.736;9.332;2024-03-25T02:02:53;5.60;9.30
20650;DHT22;10484;48.736;9.332;2024-03-25T02:05:20;5.60;9.60
20650;DHT22;10484;48.736;9.332;2024-03-25T02:07:46;5.60;9.00
20650;DHT22;10484;48.736;9.332;2024-03-25T02:10:13;5.60;11.90
20650;DHT22;10484;48.736;9.332;2024-03-25T02:12:46;5.60;7.60
20650;DHT22;10484;48.736;9.332;2024-03-25T02:15:12;5.60;7.40
20650;DHT22;10484;48.736;9.332;2024-03-25T02:17:43;5.60;7.50
20650;DHT22;10484;48.736;9.332;2024-03-25T02:20:09;5.60;8.10
20650;DHT22;10484;48.736;9.332;2024-03-25T02:22:36;5.60;8.70
20650;DHT22;10484;48.736;9.332;2024-03-25T02:25:05;5.60;9.10
20650;DHT22;10484;48.736;9.332;2024-03-25T02:27:31;5.60;9.20
20650;DHT22;10484;48.736;9.332;2024-03-25T02:32:31;5.50;9.40
20650;DHT22;10484;48.736;9.332;2024-03-25T02:34:57;5.60;9.40
20650;DHT22;10484;48.736;9.332;2024-03-25T02:37:23;5.60;8.70
20650;DHT22;10484;48.736;9.332;2024-03-25T02:39:48;5.60;9.00
20650;DHT22;10484;48.736;9.332;2024-03-25T02:42:14;5.60;9.00
20650;DHT22;10484;48.736;9.332;2024-03-25T02:44:40;5.60;8.90
20650;DHT22;10484;48.736;9.332;2024-03-25T02:47:09;5.60;8.90
20650;DHT22;10484;48.736;9.332;2024-03-25T02:49:35;5.60;8.90
20650;DHT22;10484;48.736;9.332;2024-03-25T02:52:01;5.60;9.00
20650;DHT22;10484;48.736;9.332;2024-03-25T02:54:26;5.60;9.20
20650;DHT22;10484;48.736;9.332;2024-03-25T02:56:52;5.60;10.00
20650;DHT22;10484;48.736;9.332;2024-03-25T02:59:18;5.60;9.90
20650;DHT22;10484;48.736;9.332;2024-03-25T03:01:43;5.60;9.90
20650;DHT22;10484;48.736;9.332;2024-03-25T03:04:09;5.60;9.70
20650;DHT22;10484;48.736;9.332;2024-03-25T03:06:34;5.50;9.60
20650;DHT22;10484;48.736;9.332;2024-03-25T03:09:00;5.60;9.30
20650;DHT22;10484;48.736;9.332;2024-03-25T03:11:25;5.60;8.50
20650;DHT22;10484;48.736;9.332;2024-03-25T03:13:51;5.60;7.90
20650;DHT22;10484;48.736;9.332;2024-03-25T03:16:16;5.60;7.40
20650;DHT22;10484;48.736;9.332;2024-03-25T03:18:42;5.60;7.00
20650;DHT22;10484;48.736;9.332;2024-03-25T03:21:08;5.60;7.10
20650;DHT22;10484;48.736;9.332;2024-03-25T03:23:33;5.60;7.20
20650;DHT22;10484;48.736;9.332;2024-03-25T03:25:59;5.60;10.30
20650;DHT22;10484;48.736;9.332;2024-03-25T03:28:25;5.60;6.90
20650;DHT22;10484;48.736;9.332;2024-03-25T03:30:51;5.60;6.90
20650;DHT22;10484;48.736;9.332;2024-03-25T03:33:16;5.50;7.30
20650;DHT22;10484;48.736;9.332;2024-03-25T03:35:43;5.50;8.00
20650;DHT22;10484;48.736;9.332;2024-03-25T03:38:08;5.50;8.40
20650;DHT22;10484;48.736;9.332;2024-03-25T03:40:34;5.50;8.40
20650;DHT22;10484;48.736;9.332;2024-03-25T03:42:59;5.50;7.70
20650;DHT22;10484;48.736;9.332;2024-03-25T03:45:25;5.50;6.80
20650;DHT22;10484;48.736;9.332;2024-03-25T03:47:51;5.50;5.60
20650;DHT22;10484;48.736;9.332;2024-03-25T03:50:17;5.50;5.10
20650;DHT22;10484;48.736;9.332;2024-03-25T03:52:42;5.50;4.80
20650;DHT22;10484;48.736;9.332;2024-03-25T03:55:08;5.50;4.20
20650;DHT22;10484;48.736;9.332;2024-03-25T03:57:34;5.50;3.70
20650;DHT22;10484;48.736;9.332;2024-03-25T03:59:59;5.50;3.00
20650;DHT22;10484;48.736;9.332;2024-03-25T04:02:27;5.50;3.60
20650;DHT22;10484;48.736;9.332;2024-03-25T04:04:54;5.50;3.90
20650;DHT22;10484;48.736;9.332;2024-03-25T04:07:19;5.50;4.30
20650;DHT22;10484;48.736;9.332;2024-03-25T04:09:46;5.50;5.70
20650;DHT22;10484;48.736;9.332;2024-03-25T04:12:11;5.50;5.00
20650;DHT22;10484;48.736;9.332;2024-03-25T04:14:37;5.40;5.40
20650;DHT22;10484;48.736;9.332;2024-03-25T04:17:04;5.40;6.30
20650;DHT22;10484;48.736;9.332;2024-03-25T04:19:30;5.40;7.10
20650;DHT22;10484;48.736;9.332;2024-03-25T04:21:55;5.40;7.70
20650;DHT22;10484;48.736;9.332;2024-03-25T04:24:21;5.40;8.90
20650;DHT22;10484;48.736;9.332;2024-03-25T04:26:47;5.40;13.10
20650;DHT22;10484;48.736;9.332;2024-03-25T04:29:14;5.30;11.00
20650;DHT22;10484;48.736;9.332;2024-03-25T04:31:40;5.30;11.50
20650;DHT22;10484;48.736;9.332;2024-03-25T04:34:06;5.30;11.70
20650;DHT22;10484;48.736;9.332;2024-03-25T04:36:31;5.30;11.70
20650;DHT22;10484;48.736;9.332;2024-03-25T04:38:57;5.30;11.70
20650;DHT22;10484;48.736;9.332;2024-03-25T04:41:22;5.30;11.80
20650;DHT22;10484;48.736;9.332;2024-03-25T04:43:48;5.30;12.00
20650;DHT22;10484;48.736;9.332;2024-03-25T04:46:14;5.30;15.40
20650;DHT22;10484;48.736;9.332;2024-03-25T04:48:39;5.30;12.40
20650;DHT22;10484;48.736;9.332;2024-03-25T04:51:05;5.30;12.50
20650;DHT22;10484;48.736;9.332;2024-03-25T04:53:31;5.30;13.00
20650;DHT22;10484;48.736;9.332;2024-03-25T04:55:57;5.30;13.20
20650;DHT22;10484;48.736;9.332;2024-03-25T04:58:22;5.30;12.80
20650;DHT22;10484;48.736;9.332;2024-03-25T05:00:48;5.30;12.80
20650;DHT22;10484;48.736;9.332;2024-03-25T05:03:13;5.20;12.80
20650;DHT22;10484;48.736;9.332;2024-03-25T05:05:39;5.20;13.10
20650;DHT22;10484;48.736;9.332;2024-03-25T05:08:05;5.20;16.70
20650;DHT22;10484;48.736;9.332;2024-03-25T05:10:31;5.20;12.90
20650;DHT22;10484;48.736;9.332;2024-03-25T05:12:56;5.30;12.70
20650;DHT22;10484;48.736;9.332;2024-03-25T05:15:22;5.30;12.20
20650;DHT22;10484;48.736;9.332;2024-03-25T05:17:48;5.30;11.80
20650;DHT22;10484;48.736;9.332;2024-03-25T05:20:13;5.30;15.00
20650;DHT22;10484;48.736;9.332;2024-03-25T05:22:39;5.30;11.10
20650;DHT22;10484;48.736;9.332;2024-03-25T05:25:05;5.30;10.60
20650;DHT22;10484;48.736;9.332;2024-03-25T05:27:31;5.30;10.60
20650;DHT22;10484;48.736;9.332;2024-03-25T05:29:56;5.30;10.60
20650;DHT22;10484;48.736;9.332;2024-03-25T05:32:22;5.30;11.10
20650;DHT22;10484;48.736;9.332;2024-03-25T05:34:47;5.30;10.80
20650;DHT22;10484;48.736;9.332;2024-03-25T05:37:16;5.30;10.30
20650;DHT22;10484;48.736;9.332;2024-03-25T05:39:41;5.30;10.20
20650;DHT22;10484;48.736;9.332;2024-03-25T05:42:07;5.30;10.00
20650;DHT22;10484;48.736;9.332;2024-03-25T05:44:32;5.30;9.80
20650;DHT22;10484;48.736;9.332;2024-03-25T05:46:58;5.30;9.70
20650;DHT22;10484;48.736;9.332;2024-03-25T05:49:24;5.30;9.30
20650;DHT22;10484;48.736;9.332;2024-03-25T05:51:49;5.20;8.70
20650;DHT22;10484;48.736;9.332;2024-03-25T05:54:15;5.30;8.70
20650;DHT22;10484;48.736;9.332;2024-03-25T05:56:40;5.30;8.60
20650;DHT22;10484;48.736;9.332;2024-03-25T05:59:06;5.30;8.10
20650;DHT22;10484;48.736;9.332;2024-03-25T06:01:31;5.30;8.00
20650;DHT22;10484;48.736;9.332;2024-03-25T06:03:57;5.30;7.80
20650;DHT22;10484;48.736;9.332;2024-03-25T06:06:23;5.30;7.50
20650;DHT22;10484;48.736;9.332;2024-03-25T06:08:49;5.30;7.30
20650;DHT22;10484;48.736;9.332;2024-03-25T06:11:16;5.30;6.80
20650;DHT22;10484;48.736;9.332;2024-03-25T06:13:41;5.30;6.50
20650;DHT22;10484;48.736;9.332;2024-03-25T06:16:07;5.30;5.90
20650;DHT22;10484;48.736;9.332;2024-03-25T06:18:32;5.30;5.60
20650;DHT22;10484;48.736;9.332;2024-03-25T06:20:58;5.30;5.30
20650;DHT22;10484;48.736;9.332;2024-03-25T06:23:28;5.30;5.10
20650;DHT22;10484;48.736;9.332;2024-03-25T06:25:54;5.30;4.90
20650;DHT22;10484;48.736;9.332;2024-03-25T06:28:21;5.30;4.60
20650;DHT22;10484;48.736;9.332;2024-03-25T06:30:47;5.30;4.50
20650;DHT22;10484;48.736;9.332;2024-03-25T06:33:31;5.40;4.40
20650;DHT22;10484;48.736;9.332;2024-03-25T06:36:16;5.40;4.30
20650;DHT22;10484;48.736;9.332;2024-03-25T06:38:42;5.40;4.40
20650;DHT22;10484;48.736;9.332;2024-03-25T06:41:08;5.40;4.40
20650;DHT22;10484;48.736;9.332;2024-03-25T06:43:34;5.50;4.40
20650;DHT22;10484;48.736;9.332;2024-03-25T06:46:00;5.50;4.20
20650;DHT22;10484;48.736;9.332;2024-03-25T06:48:26;5.50;4.50
20650;DHT22;10484;48.736;9.332;2024-03-25T06:50:59;5.50;4.00
20650;DHT22;10484;48.736;9.332;2024-03-25T06:53:25;5.50;3.80
20650;DHT22;10484;48.736;9.332;2024-03-25T06:55:58;5.50;6.70
20650;DHT22;10484;48.736;9.332;2024-03-25T06:58:26;5.50;3.30
20650;DHT22;10484;48.736;9.332;2024-03-25T07:00:52;5.60;3.40
20650;DHT22;10484;48.736;9.332;2024-03-25T07:03:18;5.60;3.40
20650;DHT22;10484;48.736;9.332;2024-03-25T07:05:48;5.60;3.60
20650;DHT22;10484;48.736;9.332;2024-03-25T07:08:14;5.60;3.60
20650;DHT22;10484;48.736;9.332;2024-03-25T07:10:43;5.70;3.50
20650;DHT22;10484;48.736;9.332;2024-03-25T07:13:09;5.70;3.10
20650;DHT22;10484;48.736;9.332;2024-03-25T07:15:34;5.70;2.90
20650;DHT22;10484;48.736;9.332;2024-03-25T07:18:00;5.70;2.60
20650;DHT22;10484;48.736;9.332;2024-03-25T07:20:26;5.70;2.40
20650;DHT22;10484;48.736;9.332;2024-03-25T07:22:52;5.70;2.10
20650;DHT22;10484;48.736;9.332;2024-03-25T07:25:21;5.70;2.10
20650;DHT22;10484;48.736;9.332;2024-03-25T07:27:46;5.80;2.20
20650;DHT22;10484;48.736;9.332;2024-03-25T07:30:12;5.80;2.30
20650;DHT22;10484;48.736;9.332;2024-03-25T07:32:38;5.80;2.00
20650;DHT22;10484;48.736;9.332;2024-03-25T07:35:04;5.80;2.00
20650;DHT22;10484;48.736;9.332;2024-03-25T07:37:30;5.80;1.80
20650;DHT22;10484;48.736;9.332;2024-03-25T07:39:56;5.80;2.00
20650;DHT22;10484;48.736;9.332;2024-03-25T07:42:22;5.90;2.10
20650;DHT22;10484;48.736;9.332;2024-03-25T07:44:47;5.90;1.90
20650;DHT22;10484;48.736;9.332;2024-03-25T07:47:13;5.90;1.70
20650;DHT22;10484;48.736;9.332;2024-03-25T07:49:39;6.00;1.50
20650;DHT22;10484;48.736;9.332;2024-03-25T07:52:05;6.00;1.10
20650;DHT22;10484;48.736;9.332;2024-03-25T07:54:31;6.10;1.00
20650;DHT22;10484;48.736;9.332;2024-03-25T07:56:57;6.20;1.00
20650;DHT22;10484;48.736;9.332;2024-03-25T07:59:22;6.20;1.00
20650;DHT22;10484;48.736;9.332;2024-03-25T08:01:48;6.30;1.00
20650;DHT22;10484;48.736;9.332;2024-03-25T08:04:14;6.40;1.00
20650;DHT22;10484;48.736;9.332;2024-03-25T08:06:39;6.50;1.00
20650;DHT22;10484;48.736;9.332;2024-03-25T08:09:05;6.60;1.00
20650;DHT22;10484;48.736;9.332;2024-03-25T08:11:32;6.70;1.00
20650;DHT22;10484;48.736;9.332;2024-03-25T08:13:57;6.80;1.00
20650;DHT22;10484;48.736;9.332;2024-03-25T08:16:23;6.90;1.00
20650;DHT22;10484;48.736;9.332;2024-03-25T08:18:49;7.00;1.00
20650;DHT22;10484;48.736;9.332;2024-03-25T08:21:15;7.10;1.00
20650;DHT22;10484;48.736;9.332;2024-03-25T08:23:41;7.20;1.00
20650;DHT22;10484;48.736;9.332;2024-03-25T08:26:07;7.30;1.00
20650;DHT22;10484;48.736;9.332;2024-03-25T08:28:34;7.40;1.00
20650;DHT22;10484;48.736;9.332;2024-03-25T08:30:59;7.50;1.00
20650;DHT22;10484;48.736;9.332;2024-03-25T08:33:25;7.50;1.00
20650;DHT22;10484;48.736;9.332;2024-03-25T08:35:50;7.60;1.00
20650;DHT22;10484;48.736;9.332;2024-03-25T08:38:16;7.70;1.00
20650;DHT22;10484;48.736;9.332;2024-03-25T08:40:41;7.70;1.00
20650;DHT22;10484;48.736;9.332;2024-03-25T08:43:07;7.90;1.00
20650;DHT22;10484;48.736;9.332;2024-03-25T08:45:33;7.90;1.00
20650;DHT22;10484;48.736;9.332;2024-03-25T08:47:58;7.90;1.00
20650;DHT22;10484;48.736;9.332;2024-03-25T08:50:24;8.00;1.00
20650;DHT22;10484;48.736;9.332;2024-03-25T08:52:49;8.10;1.00
20650;DHT22;10484;48.736;9.332;2024-03-25T08:55:15;8.20;1.00
20650;DHT22;10484;48.736;9.332;2024-03-25T08:57:41;8.30;1.00
20650;DHT22;10484;48.736;9.332;2024-03-25T09:00:07;8.40;1.00
20650;DHT22;10484;48.736;9.332;2024-03-25T09:02:36;8.50;1.00
20650;DHT22;10484;48.736;9.332;2024-03-25T09:05:02;8.60;1.00
20650;DHT22;10484;48.736;9.332;2024-03-25T09:07:31;8.60;1.00
20650;DHT22;10484;48.736;9.332;2024-03-25T09:09:57;8.60;1.00
20650;DHT22;10484;48.736;9.332;2024-03-25T09:12:41;8.70;1.00
20650;DHT22;10484;48.736;9.332;2024-03-25T09:15:07;8.70;1.00
20650;DHT22;10484;48.736;9.332;2024-03-25T09:17:32;8.70;1.00
20650;DHT22;10484;48.736;9.332;2024-03-25T09:19:58;8.80;1.00
20650;DHT22;10484;48.736;9.332;2024-03-25T09:22:23;8.90;1.00
20650;DHT22;10484;48.736;9.332;2024-03-25T09:24:49;9.10;1.00
20650;DHT22;10484;48.736;9.332;2024-03-25T09:27:15;9.20;1.00
20650;DHT22;10484;48.736;9.332;2024-03-25T09:29:41;9.20;1.00
20650;DHT22;10484;48.736;9.332;2024-03-25T09:32:07;9.40;1.00
20650;DHT22;10484;48.736;9.332;2024-03-25T09:34:33;9.50;1.00
20650;DHT22;10484;48.736;9.332;2024-03-25T09:36:59;9.60;1.00
20650;DHT22;10484;48.736;9.332;2024-03-25T09:39:24;9.60;1.00
20650;DHT22;10484;48.736;9.332;2024-03-25T09:41:51;9.70;1.00
20650;DHT22;10484;48.736;9.332;2024-03-25T09:44:22;9.70;1.00
20650;DHT22;10484;48.736;9.332;2024-03-25T09:46:49;9.60;1.00
20650;DHT22;10484;48.736;9.332;2024-03-25T09:49:15;9.60;1.00
20650;DHT22;10484;48.736;9.332;2024-03-25T09:51:41;9.60;1.00
20650;DHT22;10484;48.736;9.332;2024-03-25T09:54:07;9.60;1.00
20650;DHT22;10484;48.736;9.332;2024-03-25T09:56:33;9.60;1.00
20650;DHT22;10484;48.736;9.332;2024-03-25T09:59:00;9.60;1.00
20650;DHT22;10484;48.736;9.332;2024-03-25T10:01:25;9.60;1.00
20650;DHT22;10484;48.736;9.332;2024-03-25T10:03:51;9.60;1.00
20650;DHT22;10484;48.736;9.332;2024-03-25T10:06:17;9.60;1.00
20650;DHT22;10484;48.736;9.332;2024-03-25T10:08:42;9.60;1.00
20650;DHT22;10484;48.736;9.332;2024-03-25T10:11:10;9.60;1.00
20650;DHT22;10484;48.736;9.332;2024-03-25T10:13:35;9.60;1.00
20650;DHT22;10484;48.736;9.332;2024-03-25T10:16:02;9.50;1.00
20650;DHT22;10484;48.736;9.332;2024-03-25T10:18:28;9.50;1.00
20650;DHT22;10484;48.736;9.332;2024-03-25T10:20:54;9.50;1.00
20650;DHT22;10484;48.736;9.332;2024-03-25T10:23:23;9.50;1.00
20650;DHT22;10484;48.736;9.332;2024-03-25T10:25:52;9.50;1.00
20650;DHT22;10484;48.736;9.332;2024-03-25T10:28:19;9.50;1.00
20650;DHT22;10484;48.736;9.332;2024-03-25T10:30:44;9.50;1.00
20650;DHT22;10484;48.736;9.332;2024-03-25T10:33:11;9.50;1.00
20650;DHT22;10484;48.736;9.332;2024-03-25T10:35:38;9.50;1.00
20650;DHT22;10484;48.736;9.332;2024-03-25T10:38:05;9.50;1.00
20650;DHT22;10484;48.736;9.332;2024-03-25T10:40:33;9.50;1.00
20650;DHT22;10484;48.736;9.332;2024-03-25T10:43:09;9.40;1.00
20650;DHT22;10484;48.736;9.332;2024-03-25T10:45:47;9.50;1.00
20650;DHT22;10484;48.736;9.332;2024-03-25T10:48:21;9.50;1.00
20650;DHT22;10484;48.736;9.332;2024-03-25T10:50:50;9.50;1.00
20650;DHT22;10484;48.736;9.332;2024-03-25T10:53:18;9.50;1.00
20650;DHT22;10484;48.736;9.332;2024-03-25T10:55:50;9.60;1.00
20650;DHT22;10484;48.736;9.332;2024-03-25T10:58:16;9.60;1.00
20650;DHT22;10484;48.736;9.332;2024-03-25T11:00:43;9.70;1.00
20650;DHT22;10484;48.736;9.332;2024-03-25T11:03:10;9.70;1.00
20650;DHT22;10484;48.736;9.332;2024-03-25T11:05:36;9.80;1.00
20650;DHT22;10484;48.736;9.332;2024-03-25T11:08:15;9.90;1.00
20650;DHT22;10484;48.736;9.332;2024-03-25T11:10:45;9.90;1.00
20650;DHT22;10484;48.736;9.332;2024-03-25T11:13:17;9.90;1.00
20650;DHT22;10484;48.736;9.332;2024-03-25T11:15:44;9.90;1.00
20650;DHT22;10484;48.736;9.332;2024-03-25T11:18:14;9.90;1.00
20650;DHT22;10484;48.736;9.332;2024-03-25T11:20:40;10.00;1.00
20650;DHT22;10484;48.736;9.332;2024-03-25T11:23:09;10.00;1.00
20650;DHT22;10484;48.736;9.332;2024-03-25T11:25:36;10.00;1.00
20650;DHT22;10484;48.736;9.332;2024-03-25T11:28:02;10.00;1.00
20650;DHT22;10484;48.736;9.332;2024-03-25T11:30:27;10.10;1.00
20650;DHT22;10484;48.736;9.332;2024-03-25T11:32:54;10.10;1.00
20650;DHT22;10484;48.736;9.332;2024-03-25T11:35:20;10.10;1.00
20650;DHT22;10484;48.736;9.332;2024-03-25T11:37:46;10.10;1.00
20650;DHT22;10484;48.736;9.332;2024-03-25T11:40:13;10.10;1.00
20650;DHT22;10484;48.736;9.332;2024-03-25T11:42:43;10.10;1.00
20650;DHT22;10484;48.736;9.332;2024-03-25T11:45:16;10.10;1.00
20650;DHT22;10484;48.736;9.332;2024-03-25T11:47:43;10.20;1.00
20650;DHT22;10484;48.736;9.332;2024-03-25T11:50:13;10.30;1.00
20650;DHT22;10484;48.736;9.332;2024-03-25T11:52:39;10.30;1.00
20650;DHT22;10484;48.736;9.332;2024-03-25T11:55:05;10.40;1.00
20650;DHT22;10484;48.736;9.332;2024-03-25T11:57:30;10.40;1.00
20650;DHT22;10484;48.736;9.332;2024-03-25T11:59:57;10.40;1.00
20650;DHT22;10484;48.736;9.332;2024-03-25T12:02:23;10.50;1.00
20650;DHT22;10484;48.736;9.332;2024-03-25T12:04:50;10.60;1.00
20650;DHT22;10484;48.736;9.332;2024-03-25T12:07:16;10.70;1.00
20650;DHT22;10484;48.736;9.332;2024-03-25T12:09:42;10.70;1.00
20650;DHT22;10484;48.736;9.332;2024-03-25T12:12:26;10.70;1.00
20650;DHT22;10484;48.736;9.332;2024-03-25T12:14:53;10.70;1.00
20650;DHT22;10484;48.736;9.332;2024-03-25T12:17:19;10.90;1.00
20650;DHT22;10484;48.736;9.332;2024-03-25T12:22:26;11.30;1.00
20650;DHT22;10484;48.736;9.332;2024-03-25T12:24:52;11.40;1.00
20650;DHT22;10484;48.736;9.332;2024-03-25T12:27:18;11.50;1.00
20650;DHT22;10484;48.736;9.332;2024-03-25T12:29:43;11.50;1.00
20650;DHT22;10484;48.736;9.332;2024-03-25T12:32:12;11.40;1.00
20650;DHT22;10484;48.736;9.332;2024-03-25T12:34:38;11.40;1.00
20650;DHT22;10484;48.736;9.332;2024-03-25T12:37:04;11.40;1.00
20650;DHT22;10484;48.736;9.332;2024-03-25T12:39:30;11.40;1.00
20650;DHT22;10484;48.736;9.332;2024-03-25T12:41:55;11.40;1.00
20650;DHT22;10484;48.736;9.332;2024-03-25T12:44:21;11.40;1.00
20650;DHT22;10484;48.736;9.332;2024-03-25T12:46:47;11.50;1.00
20650;DHT22;10484;48.736;9.332;2024-03-25T12:49:12;11.60;1.00
20650;DHT22;10484;48.736;9.332;2024-03-25T12:51:38;11.60;1.00
20650;DHT22;10484;48.736;9.332;2024-03-25T12:54:04;11.70;1.00
20650;DHT22;10484;48.736;9.332;2024-03-25T12:56:29;11.80;1.00
20650;DHT22;10484;48.736;9.332;2024-03-25T12:58:55;11.90;1.00
20650;DHT22;10484;48.736;9.332;2024-03-25T13:01:20;11.90;1.00
20650;DHT22;10484;48.736;9.332;2024-03-25T13:03:46;12.00;1.00
20650;DHT22;10484;48.736;9.332;2024-03-25T13:06:11;12.00;1.00
20650;DHT22;10484;48.736;9.332;2024-03-25T13:08:37;12.00;1.00
20650;DHT22;10484;48.736;9.332;2024-03-25T13:11:03;12.10;1.00
20650;DHT22;10484;48.736;9.332;2024-03-25T13:13:29;12.00;1.00
20650;DHT22;10484;48.736;9.332;2024-03-25T13:15:54;12.10;1.00
20650;DHT22;10484;48.736;9.332;2024-03-25T13:18:20;12.20;1.00
20650;DHT22;10484;48.736;9.332;2024-03-25T13:20:45;12.30;1.00
20650;DHT22;10484;48.736;9.332;2024-03-25T13:23:11;12.40;1.00
20650;DHT22;10484;48.736;9.332;2024-03-25T13:25:37;12.50;1.00
20650;DHT22;10484;48.736;9.332;2024-03-25T13:28:02;12.60;1.00
20650;DHT22;10484;48.736;9.332;2024-03-25T13:30:30;12.70;1.00
20650;DHT22;10484;48.736;9.332;2024-03-25T13:32:56;12.70;1.00
20650;DHT22;10484;48.736;9.332;2024-03-25T13:35:22;12.70;1.00
20650;DHT22;10484;48.736;9.332;2024-03-25T13:37:48;12.80;1.00
20650;DHT22;10484;48.736;9.332;2024-03-25T13:40:13;12.70;1.00
20650;DHT22;10484;48.736;9.332;2024-03-25T13:42:40;12.80;1.00
20650;DHT22;10484;48.736;9.332;2024-03-25T13:45:06;12.80;1.00
20650;DHT22;10484;48.736;9.332;2024-03-25T13:47:31;12.90;1.00
20650;DHT22;10484;48.736;9.332;2024-03-25T13:50:04;12.90;1.00
20650;DHT22;10484;48.736;9.332;2024-03-25T13:52:32;13.00;1.00
20650;DHT22;10484;48.736;9.332;2024-03-25T13:54:58;13.00;1.00
20650;DHT22;10484;48.736;9.332;2024-03-25T13:57:24;13.00;1.00
20650;DHT22;10484;48.736;9.332;2024-03-25T13:59:50;13.10;1.00
20650;DHT22;10484;48.736;9.332;2024-03-25T14:02:16;13.10;1.00
20650;DHT22;10484;48.736;9.332;2024-03-25T14:04:41;13.20;1.00
20650;DHT22;10484;48.736;9.332;2024-03-25T14:07:07;13.30;1.00
20650;DHT22;10484;48.736;9.332;2024-03-25T14:09:32;13.40;1.00
20650;DHT22;10484;48.736;9.332;2024-03-25T14:11:58;13.30;1.00
20650;DHT22;10484;48.736;9.332;2024-03-25T14:14:24;13.40;1.00
20650;DHT22;10484;48.736;9.332;2024-03-25T14:16:49;13.40;1.00
20650;DHT22;10484;48.736;9.332;2024-03-25T14:19:15;13.50;1.00
20650;DHT22;10484;48.736;9.332;2024-03-25T14:21:41;13.50;1.00
20650;DHT22;10484;48.736;9.332;2024-03-25T14:24:07;13.50;1.00
20650;DHT22;10484;48.736;9.332;2024-03-25T14:26:32;13.60;1.00
20650;DHT22;10484;48.736;9.332;2024-03-25T14:28:58;13.60;1.00
20650;DHT22;10484;48.736;9.332;2024-03-25T14:31:25;13.70;1.00
20650;DHT22;10484;48.736;9.332;2024-03-25T14:33:51;13.80;1.00
20650;DHT22;10484;48.736;9.332;2024-03-25T14:36:16;13.80;1.00
20650;DHT22;10484;48.736;9.332;2024-03-25T14:38:42;13.80;1.00
20650;DHT22;10484;48.736;9.332;2024-03-25T14:41:11;13.70;1.00
20650;DHT22;10484;48.736;9.332;2024-03-25T14:43:37;13.70;1.00
20650;DHT22;10484;48.736;9.332;2024-03-25T14:46:03;13.70;1.00
20650;DHT22;10484;48.736;9.332;2024-03-25T14:48:29;13.70;1.00
20650;DHT22;10484;48.736;9.332;2024-03-25T14:50:55;13.70;1.00
20650;DHT22;10484;48.736;9.332;2024-03-25T14:53:21;13.70;1.00
20650;DHT22;10484;48.736;9.332;2024-03-25T14:55:46;13.70;1.00
20650;DHT22;10484;48.736;9.332;2024-03-25T14:58:12;13.80;1.00
20650;DHT22;10484;48.736;9.332;2024-03-25T15:00:37;13.80;1.00
20650;DHT22;10484;48.736;9.332;2024-03-25T15:03:03;13.80;1.00
20650;DHT22;10484;48.736;9.332;2024-03-25T15:05:29;13.80;1.00
20650;DHT22;10484;48.736;9.332;2024-03-25T15:07:55;13.80;1.00
20650;DHT22;10484;48.736;9.332;2024-03-25T15:10:21;13.80;1.00
20650;DHT22;10484;48.736;9.332;2024-03-25T15:12:46;13.90;1.00
20650;DHT22;10484;48.736;9.332;2024-03-25T15:15:12;13.90;1.00
20650;DHT22;10484;48.736;9.332;2024-03-25T15:17:38;13.90;1.00
20650;DHT22;10484;48.736;9.332;2024-03-25T15:20:04;13.90;1.00
20650;DHT22;10484;48.736;9.332;2024-03-25T15:22:31;13.90;1.00
20650;DHT22;10484;48.736;9.332;2024-03-25T15:24:56;13.90;1.00
20650;DHT22;10484;48.736;9.332;2024-03-25T15:27:22;13.90;1.00
20650;DHT22;10484;48.736;9.332;2024-03-25T15:29:48;13.90;1.00
20650;DHT22;10484;48.736;9.332;2024-03-25T15:32:14;13.90;1.00
20650;DHT22;10484;48.736;9.332;2024-03-25T15:34:39;13.90;1.00
20650;DHT22;10484;48.736;9.332;2024-03-25T15:37:05;13.90;1.00
20650;DHT22;10484;48.736;9.332;2024-03-25T15:39:30;13.90;1.00
20650;DHT22;10484;48.736;9.332;2024-03-25T15:41:56;13.90;1.00
20650;DHT22;10484;48.736;9.332;2024-03-25T15:44:22;13.90;1.00
20650;DHT22;10484;48.736;9.332;2024-03-25T15:46:48;13.80;1.00
20650;DHT22;10484;48.736;9.332;2024-03-25T15:49:13;13.80;1.00
20650;DHT22;10484;48.736;9.332;2024-03-25T15:51:39;13.80;1.00
20650;DHT22;10484;48.736;9.332;2024-03-25T15:54:04;13.80;1.00